Time;durP1;ratioP1;P1;durP2;ratioP2;P2;SDS_P1;SDS_P2;PMS_P1;PMS_P2;Temp;Humidity;BMP_temperature;BMP_pressure;BME280_temperature;BME280_humidity;BME280_pressure;Samples;Min_cycle;Max_cycle;Signal;HPM_P1;HPM_P2
2022/08/25 00:01:13;;;;;;;14.95;13.25;;;22.60;76.40;;;;;;5019061;28;20192;-73
2022/08/25 00:03:40;;;;;;;14.38;12.98;;;22.60;76.60;;;;;;5020482;28;20037;-73
2022/08/25 00:06:07;;;;;;;13.45;11.73;;;22.50;77.00;;;;;;5013908;28;20132;-74
2022/08/25 00:08:36;;;;;;;14.55;12.82;;;22.40;77.20;;;;;;5014954;28;20042;-73
2022/08/25 00:11:28;;;;;;;12.25;11.00;;;22.30;77.30;;;;;;5017651;28;20100;-73
2022/08/25 00:13:57;;;;;;;12.88;11.55;;;22.30;77.30;;;;;;5024196;28;20409;-73
2022/08/25 00:16:24;;;;;;;14.80;12.20;;;22.30;77.30;;;;;;5018803;28;20042;-73
2022/08/25 00:18:52;;;;;;;13.82;11.60;;;22.30;77.40;;;;;;5013329;28;20042;-73
2022/08/25 00:21:18;;;;;;;15.73;14.13;;;22.30;77.50;;;;;;5013673;28;20544;-73
2022/08/25 00:23:44;;;;;;;14.85;13.43;;;22.30;77.40;;;;;;5013060;28;20026;-73
2022/08/25 00:26:10;;;;;;;13.63;12.15;;;22.30;77.40;;;;;;5023563;28;20033;-73
2022/08/25 00:28:36;;;;;;;14.02;12.63;;;22.20;77.40;;;;;;5015036;28;20483;-73
2022/08/25 00:31:03;;;;;;;14.40;12.65;;;22.20;77.70;;;;;;5017989;28;20042;-73
2022/08/25 00:33:30;;;;;;;14.50;12.82;;;22.20;77.70;;;;;;5017465;28;20029;-75
2022/08/25 00:35:56;;;;;;;15.88;14.18;;;22.10;77.70;;;;;;5021091;28;20467;-74
2022/08/25 00:38:22;;;;;;;13.82;12.45;;;22.10;78.00;;;;;;5016880;28;20041;-72
2022/08/25 00:41:04;;;;;;;13.85;12.00;;;22.10;78.10;;;;;;5014685;28;20034;-73
2022/08/25 00:43:56;;;;;;;15.57;13.85;;;22.10;78.10;;;;;;5013230;28;20068;-73
2022/08/25 00:46:25;;;;;;;15.20;12.95;;;22.10;78.20;;;;;;5008073;28;20037;-73
2022/08/25 00:48:57;;;;;;;13.38;11.98;;;22.00;78.30;;;;;;5017472;28;20616;-73
2022/08/25 00:51:38;;;;;;;13.40;12.10;;;22.00;78.30;;;;;;5011725;28;20068;-73
2022/08/25 00:54:06;;;;;;;15.02;13.52;;;22.00;78.30;;;;;;5013345;28;20084;-75
2022/08/25 00:56:33;;;;;;;14.88;13.38;;;22.10;78.40;;;;;;5021272;28;20034;-73
2022/08/25 00:59:00;;;;;;;15.23;13.63;;;22.00;78.30;;;;;;5019416;28;20096;-73
2022/08/25 01:01:26;;;;;;;13.55;12.15;;;22.00;78.40;;;;;;5011834;28;20539;-73
2022/08/25 01:03:52;;;;;;;15.70;14.07;;;21.90;78.50;;;;;;5021791;28;20493;-73
2022/08/25 01:06:18;;;;;;;17.10;15.40;;;21.90;78.70;;;;;;5009504;28;20037;-73
2022/08/25 01:08:44;;;;;;;16.40;14.73;;;21.90;78.60;;;;;;5021247;28;20049;-73
2022/08/25 01:11:11;;;;;;;15.25;13.70;;;21.90;78.90;;;;;;5025872;28;20477;-73
2022/08/25 01:13:44;;;;;;;16.20;14.70;;;21.80;79.10;;;;;;5026616;28;20152;-74
2022/08/25 01:16:11;;;;;;;15.95;14.27;;;21.80;79.20;;;;;;5013874;28;20042;-73
2022/08/25 01:18:55;;;;;;;14.88;13.32;;;21.80;79.20;;;;;;5015198;28;20088;-72
2022/08/25 01:21:22;;;;;;;15.65;14.05;;;21.80;79.10;;;;;;5014576;28;20208;-72
2022/08/25 01:23:49;;;;;;;16.50;13.63;;;21.80;79.10;;;;;;5019564;28;20040;-74
2022/08/25 01:26:22;;;;;;;19.63;16.85;;;21.80;79.10;;;;;;5019564;28;20043;-72
2022/08/25 01:31:35;;;;;;;16.17;14.55;;;21.80;79.20;;;;;;5007759;28;20041;-73
2022/08/25 01:34:02;;;;;;;17.63;15.80;;;21.80;79.30;;;;;;5014126;28;20037;-74
2022/08/25 01:36:29;;;;;;;17.00;15.20;;;21.70;79.40;;;;;;5009983;28;20048;-72
2022/08/25 01:38:55;;;;;;;17.30;15.57;;;21.70;79.40;;;;;;5004441;28;20081;-72
2022/08/25 01:41:52;;;;;;;17.67;16.00;;;21.60;79.70;;;;;;5019416;28;22067;-72
2022/08/25 01:44:18;;;;;;;17.70;15.15;;;21.60;80.00;;;;;;5012251;28;20048;-72
2022/08/25 01:46:44;;;;;;;16.92;15.20;;;21.50;80.20;;;;;;5015937;28;20029;-73
2022/08/25 01:49:09;;;;;;;18.55;16.63;;;21.50;80.30;;;;;;5014892;28;20050;-73
2022/08/25 01:51:46;;;;;;;16.35;14.68;;;21.50;80.30;;;;;;5018842;28;20044;-73
2022/08/25 01:54:12;;;;;;;17.08;15.52;;;21.50;80.30;;;;;;5018107;28;20034;-73
2022/08/25 01:56:38;;;;;;;18.52;16.55;;;21.50;80.30;;;;;;5011706;28;20030;-72
2022/08/25 01:59:03;;;;;;;20.33;18.33;;;21.60;80.40;;;;;;5020188;28;20088;-76
2022/08/25 02:01:29;;;;;;;18.00;16.30;;;21.50;80.40;;;;;;5016323;28;20060;-73
2022/08/25 02:03:56;;;;;;;18.85;17.05;;;21.50;80.50;;;;;;5022577;28;20124;-73
2022/08/25 02:06:27;;;;;;;20.13;18.23;;;21.50;80.60;;;;;;5022048;28;20513;-74
2022/08/25 02:08:55;;;;;;;20.27;18.27;;;21.50;80.60;;;;;;5011158;28;20049;-73
2022/08/25 02:11:22;;;;;;;18.73;16.83;;;21.50;80.70;;;;;;5012799;28;20083;-74
2022/08/25 02:13:51;;;;;;;18.42;16.67;;;21.50;80.70;;;;;;5018493;28;20117;-72
2022/08/25 02:16:20;;;;;;;17.33;15.63;;;21.50;80.80;;;;;;5013243;28;20037;-73
2022/08/25 02:18:47;;;;;;;18.95;17.15;;;21.50;80.80;;;;;;5012016;28;20041;-73
2022/08/25 02:21:13;;;;;;;19.23;17.27;;;21.40;80.60;;;;;;5008531;28;20052;-73
2022/08/25 02:23:40;;;;;;;18.38;16.55;;;21.40;80.60;;;;;;5020940;28;20052;-74
2022/08/25 02:26:07;;;;;;;20.65;18.65;;;21.40;80.80;;;;;;5017729;28;20029;-73
2022/08/25 02:28:33;;;;;;;20.02;18.13;;;21.30;81.00;;;;;;5016636;28;20045;-73
2022/08/25 02:30:59;;;;;;;20.17;18.08;;;21.30;81.00;;;;;;5013983;28;20045;-74
2022/08/25 02:33:24;;;;;;;21.13;19.23;;;21.30;81.00;;;;;;5021603;28;20476;-72
2022/08/25 02:35:50;;;;;;;22.85;20.58;;;21.30;81.10;;;;;;5017308;28;20029;-73
2022/08/25 02:38:17;;;;;;;23.42;21.27;;;21.30;81.10;;;;;;5013341;28;20128;-73
2022/08/25 02:40:42;;;;;;;20.80;18.83;;;21.20;81.30;;;;;;5007184;28;20041;-73
2022/08/25 02:43:08;;;;;;;21.95;19.85;;;21.20;81.30;;;;;;5016498;28;20037;-73
2022/08/25 02:45:35;;;;;;;20.45;18.55;;;21.10;81.40;;;;;;5019554;28;20043;-72
2022/08/25 02:48:01;;;;;;;22.88;20.52;;;21.20;81.40;;;;;;5016822;28;20030;-73
2022/08/25 02:50:28;;;;;;;21.88;19.77;;;21.20;81.40;;;;;;5045038;28;20037;-72
2022/08/25 02:52:53;;;;;;;21.90;19.92;;;21.10;81.40;;;;;;5017052;28;20033;-75
2022/08/25 02:55:19;;;;;;;21.63;19.45;;;21.10;81.50;;;;;;5015393;28;20502;-72
2022/08/25 02:57:46;;;;;;;21.50;19.58;;;21.10;81.50;;;;;;5021486;28;20095;-73
2022/08/25 03:00:13;;;;;;;21.15;19.05;;;21.10;81.60;;;;;;5020941;28;20044;-72
2022/08/25 03:02:40;;;;;;;21.58;19.48;;;21.10;81.70;;;;;;5021031;28;20512;-74
2022/08/25 03:05:06;;;;;;;24.08;21.77;;;21.10;81.70;;;;;;5013438;28;20025;-73
2022/08/25 03:07:33;;;;;;;24.50;22.20;;;21.10;81.80;;;;;;5022056;28;20556;-73
2022/08/25 03:09:58;;;;;;;22.40;20.30;;;21.00;81.90;;;;;;5018089;28;20446;-75
2022/08/25 03:12:24;;;;;;;21.73;19.75;;;21.00;82.10;;;;;;5011103;28;20053;-73
2022/08/25 03:14:50;;;;;;;24.42;22.13;;;21.00;82.10;;;;;;5010143;28;20043;-73
2022/08/25 03:17:15;;;;;;;24.85;22.45;;;21.00;82.20;;;;;;5007671;28;20034;-72
2022/08/25 03:19:41;;;;;;;23.80;21.52;;;20.90;82.30;;;;;;5008633;28;20046;-72
2022/08/25 03:22:07;;;;;;;24.65;22.23;;;20.90;82.30;;;;;;5009663;28;20446;-72
2022/08/25 03:24:32;;;;;;;23.13;20.92;;;21.00;82.30;;;;;;5024479;28;20091;-75
2022/08/25 03:26:58;;;;;;;22.30;20.30;;;20.90;82.30;;;;;;5018275;28;20030;-72
2022/08/25 03:29:32;;;;;;;24.00;21.80;;;20.90;82.40;;;;;;5020515;28;20045;-75
2022/08/25 03:31:58;;;;;;;28.13;25.17;;;20.90;82.50;;;;;;5021151;28;20386;-72
2022/08/25 03:34:26;;;;;;;26.65;23.98;;;20.80;82.50;;;;;;5028749;28;20040;-72
2022/08/25 03:36:53;;;;;;;25.73;23.27;;;20.80;82.70;;;;;;5023532;28;20044;-72
2022/08/25 03:39:21;;;;;;;24.95;22.48;;;20.80;82.70;;;;;;5017271;28;20136;-73
2022/08/25 03:41:47;;;;;;;28.10;25.30;;;20.80;82.70;;;;;;5019076;28;20109;-72
2022/08/25 03:44:14;;;;;;;25.80;23.30;;;20.80;82.80;;;;;;5020900;28;20030;-73
2022/08/25 03:46:42;;;;;;;26.75;24.13;;;20.70;82.90;;;;;;5010996;28;20045;-72
2022/08/25 03:49:10;;;;;;;27.58;25.08;;;20.80;82.80;;;;;;5012726;28;20072;-73
2022/08/25 03:51:48;;;;;;;26.83;24.35;;;20.70;83.00;;;;;;5021513;28;20488;-73
2022/08/25 03:54:21;;;;;;;24.27;21.92;;;20.70;83.10;;;;;;5012177;28;20105;-72
2022/08/25 03:56:47;;;;;;;26.08;23.70;;;20.70;83.10;;;;;;5011309;28;20157;-72
2022/08/25 03:59:12;;;;;;;26.83;24.35;;;20.60;83.20;;;;;;5020157;28;20054;-72
2022/08/25 04:01:40;;;;;;;27.95;25.42;;;20.60;83.20;;;;;;5017963;28;20038;-74
2022/08/25 04:04:07;;;;;;;29.67;26.88;;;20.60;83.10;;;;;;5006307;28;20025;-73
2022/08/25 04:06:34;;;;;;;28.25;25.35;;;20.60;83.20;;;;;;5012859;28;20042;-72
2022/08/25 04:08:59;;;;;;;26.02;23.65;;;20.60;83.20;;;;;;5015136;28;20058;-74
2022/08/25 04:11:26;;;;;;;30.33;27.33;;;20.60;83.40;;;;;;5013842;28;20052;-72
2022/08/25 04:13:55;;;;;;;31.00;27.98;;;20.60;83.40;;;;;;5018785;28;20049;-73
2022/08/25 04:16:27;;;;;;;29.73;27.02;;;20.60;83.40;;;;;;5015323;28;20045;-73
2022/08/25 04:18:54;;;;;;;28.38;25.77;;;20.60;83.60;;;;;;5013053;28;20050;-73
2022/08/25 04:21:21;;;;;;;29.80;27.20;;;20.50;83.60;;;;;;5009188;28;20548;-73
2022/08/25 04:23:48;;;;;;;28.23;25.73;;;20.50;83.60;;;;;;5013798;28;20065;-73
2022/08/25 04:26:24;;;;;;;28.27;25.85;;;20.40;83.70;;;;;;5022979;28;20116;-73
2022/08/25 04:28:49;;;;;;;29.08;26.48;;;20.40;83.80;;;;;;5017915;28;20128;-73
2022/08/25 04:31:17;;;;;;;26.45;23.98;;;20.50;83.80;;;;;;5012477;28;20029;-73
2022/08/25 04:33:43;;;;;;;28.15;25.52;;;20.50;83.70;;;;;;5017388;28;20120;-73
2022/08/25 04:36:13;;;;;;;28.63;25.98;;;20.50;83.80;;;;;;5020176;28;20117;-74
2022/08/25 04:38:40;;;;;;;30.25;27.33;;;20.40;83.80;;;;;;5017694;28;20382;-72
2022/08/25 04:41:07;;;;;;;28.20;25.60;;;20.40;83.80;;;;;;5007610;28;20116;-73
2022/08/25 04:43:34;;;;;;;28.50;25.73;;;20.40;83.80;;;;;;5018698;28;20156;-74
2022/08/25 04:46:03;;;;;;;31.42;28.42;;;20.40;83.70;;;;;;5007779;28;20411;-73
2022/08/25 04:48:29;;;;;;;29.35;26.52;;;20.40;83.50;;;;;;5012784;28;20046;-73
2022/08/25 04:50:55;;;;;;;26.55;24.08;;;20.40;83.50;;;;;;5021680;28;20042;-72
2022/08/25 04:53:21;;;;;;;31.77;28.77;;;20.40;83.60;;;;;;5020927;28;20049;-72
2022/08/25 04:55:47;;;;;;;28.60;25.85;;;20.40;83.60;;;;;;5013375;28;20030;-73
2022/08/25 04:58:15;;;;;;;28.40;25.63;;;20.40;83.50;;;;;;5017343;28;20101;-71
2022/08/25 05:00:41;;;;;;;29.05;26.05;;;20.40;83.60;;;;;;5016576;28;20072;-73
2022/08/25 05:03:07;;;;;;;29.02;26.23;;;20.40;83.40;;;;;;5014909;28;20037;-73
2022/08/25 05:05:35;;;;;;;27.60;24.83;;;20.40;83.40;;;;;;5019766;28;20130;-72
2022/08/25 05:08:01;;;;;;;26.42;23.67;;;20.50;83.40;;;;;;5019760;28;20048;-74
2022/08/25 05:10:27;;;;;;;27.05;24.25;;;20.40;83.30;;;;;;5018076;28;20034;-73
2022/08/25 05:12:53;;;;;;;27.83;25.25;;;20.50;83.20;;;;;;5017999;28;20050;-73
2022/08/25 05:18:03;;;;;;;26.55;23.98;;;20.50;82.70;;;;;;5006516;28;20413;-73
2022/08/25 05:20:29;;;;;;;26.67;23.95;;;20.50;82.50;;;;;;5022431;28;20030;-73
2022/08/25 05:22:56;;;;;;;25.48;23.00;;;20.50;82.50;;;;;;5016992;28;20030;-73
2022/08/25 05:25:22;;;;;;;24.73;22.23;;;20.60;82.40;;;;;;5014441;28;20047;-75
2022/08/25 05:27:48;;;;;;;26.80;24.10;;;20.60;82.40;;;;;;5018431;28;20508;-72
2022/08/25 05:30:13;;;;;;;27.13;21.15;;;20.60;82.40;;;;;;5019338;28;20046;-72
2022/08/25 05:32:39;;;;;;;25.77;23.15;;;20.60;82.50;;;;;;5020245;28;20223;-72
2022/08/25 05:35:06;;;;;;;24.38;21.95;;;20.70;82.40;;;;;;5014523;28;20037;-75
2022/08/25 05:37:32;;;;;;;23.92;21.52;;;20.70;82.20;;;;;;5022404;28;20022;-73
2022/08/25 05:39:57;;;;;;;25.67;23.05;;;20.80;82.10;;;;;;5004209;28;20045;-72
2022/08/25 05:42:23;;;;;;;26.23;23.63;;;20.80;82.10;;;;;;5017342;28;20595;-73
2022/08/25 05:44:52;;;;;;;26.58;23.85;;;20.80;81.90;;;;;;5018081;28;20542;-71
2022/08/25 05:47:18;;;;;;;27.10;24.60;;;20.90;81.90;;;;;;5016475;28;20045;-75
2022/08/25 05:49:44;;;;;;;28.35;25.45;;;20.90;81.80;;;;;;5013689;28;20045;-72
2022/08/25 05:52:09;;;;;;;26.23;23.75;;;21.00;81.80;;;;;;5008552;28;20041;-73
2022/08/25 05:54:35;;;;;;;29.95;27.25;;;21.10;81.70;;;;;;5014336;28;20117;-73
2022/08/25 05:57:01;;;;;;;26.27;23.60;;;21.10;81.60;;;;;;5014400;28;20030;-72
2022/08/25 05:59:26;;;;;;;25.83;23.42;;;21.20;81.60;;;;;;5017408;28;20040;-72
2022/08/25 06:04:36;;;;;;;27.67;24.98;;;21.40;80.90;;;;;;5013365;28;20104;-72
2022/08/25 06:07:02;;;;;;;29.30;26.48;;;21.50;81.00;;;;;;5012070;28;20440;-73
2022/08/25 06:09:27;;;;;;;27.00;24.40;;;21.60;80.70;;;;;;5020536;28;20148;-75
2022/08/25 06:11:53;;;;;;;28.60;25.92;;;21.70;80.60;;;;;;5016130;28;20417;-72
2022/08/25 06:14:19;;;;;;;26.00;23.50;;;21.80;80.40;;;;;;5015754;28;20123;-72
2022/08/25 06:16:45;;;;;;;23.35;21.15;;;22.00;80.20;;;;;;5014740;28;20514;-73
2022/08/25 06:19:10;;;;;;;24.23;21.63;;;22.10;79.90;;;;;;5009265;28;20481;-71
2022/08/25 06:21:39;;;;;;;25.83;23.05;;;22.10;79.60;;;;;;5013024;28;20537;-71
2022/08/25 06:24:06;;;;;;;21.98;19.85;;;22.20;79.30;;;;;;5016658;28;20044;-72
2022/08/25 06:26:33;;;;;;;26.98;24.20;;;22.20;79.30;;;;;;5022396;28;20025;-72
2022/08/25 06:28:59;;;;;;;28.73;26.10;;;22.30;79.10;;;;;;5011596;28;20421;-71
2022/08/25 06:31:24;;;;;;;27.02;24.40;;;22.30;78.80;;;;;;5009315;28;20033;-72
2022/08/25 06:33:50;;;;;;;27.20;24.73;;;22.30;78.60;;;;;;5017161;28;20049;-72
2022/08/25 06:36:18;;;;;;;27.48;24.77;;;22.40;78.70;;;;;;5012449;28;20042;-72
2022/08/25 06:38:44;;;;;;;26.05;23.45;;;22.40;78.60;;;;;;5019909;28;20045;-72
2022/08/25 06:41:11;;;;;;;25.85;23.38;;;22.40;78.70;;;;;;5008963;28;20033;-72
2022/08/25 06:43:38;;;;;;;26.30;23.95;;;22.40;78.80;;;;;;5020401;28;20037;-71
2022/08/25 06:46:16;;;;;;;31.33;28.05;;;22.50;78.50;;;;;;5009499;28;20045;-75
2022/08/25 06:48:42;;;;;;;24.73;22.20;;;22.60;78.40;;;;;;5023633;28;20401;-74
2022/08/25 06:51:10;;;;;;;24.75;22.50;;;22.60;78.40;;;;;;5010699;28;20037;-72
2022/08/25 06:53:36;;;;;;;26.88;24.27;;;22.80;78.20;;;;;;5009359;28;20370;-74
2022/08/25 06:56:02;;;;;;;25.13;22.92;;;23.00;77.60;;;;;;5011396;28;20038;-73
2022/08/25 06:58:28;;;;;;;27.15;24.55;;;23.10;77.10;;;;;;5011351;28;20029;-74
2022/08/25 07:00:54;;;;;;;28.85;25.88;;;23.30;76.60;;;;;;5016619;28;20124;-73
2022/08/25 07:03:20;;;;;;;23.88;21.35;;;23.50;76.30;;;;;;5015036;28;20120;-72
2022/08/25 07:05:53;;;;;;;22.75;20.13;;;23.60;76.00;;;;;;5025089;28;20488;-72
2022/08/25 07:08:19;;;;;;;22.05;19.02;;;23.70;75.50;;;;;;5017585;28;20037;-72
2022/08/25 07:10:46;;;;;;;23.67;20.10;;;23.80;75.20;;;;;;5024247;28;20037;-72
2022/08/25 07:13:12;;;;;;;19.73;17.63;;;24.00;73.80;;;;;;5015101;28;20096;-74
2022/08/25 07:15:39;;;;;;;26.48;20.65;;;24.20;72.60;;;;;;5015404;28;20042;-72
2022/08/25 07:18:05;;;;;;;19.33;15.40;;;24.40;70.10;;;;;;5011965;28;20297;-73
2022/08/25 07:20:32;;;;;;;16.40;12.93;;;24.50;68.50;;;;;;5012712;28;20061;-73
2022/08/25 07:22:58;;;;;;;16.40;13.57;;;24.80;68.50;;;;;;5016862;28;20545;-72
2022/08/25 07:25:23;;;;;;;12.90;11.55;;;24.90;67.20;;;;;;5008726;28;20037;-72
2022/08/25 07:27:49;;;;;;;17.25;10.43;;;25.20;66.10;;;;;;5022429;28;20034;-72
2022/08/25 07:30:16;;;;;;;19.30;10.50;;;25.50;63.80;;;;;;5017139;28;20517;-72
2022/08/25 07:32:41;;;;;;;12.32;8.00;;;25.60;61.60;;;;;;5018158;28;20473;-72
2022/08/25 07:35:14;;;;;;;12.95;7.70;;;25.80;61.40;;;;;;5021017;28;20049;-72
2022/08/25 07:37:41;;;;;;;9.82;5.70;;;26.10;59.90;;;;;;5016223;28;20622;-72
2022/08/25 07:40:09;;;;;;;11.40;5.45;;;26.20;58.60;;;;;;5012320;28;20116;-72
2022/08/25 07:42:34;;;;;;;12.90;4.63;;;26.40;57.60;;;;;;5010861;28;20030;-73
2022/08/25 07:45:00;;;;;;;11.07;4.53;;;26.50;54.30;;;;;;5019470;28;20453;-72
2022/08/25 07:47:26;;;;;;;12.35;4.55;;;26.70;54.00;;;;;;5015356;28;20042;-73
2022/08/25 07:49:52;;;;;;;11.05;4.40;;;26.90;51.90;;;;;;5016746;28;20049;-73
2022/08/25 07:52:18;;;;;;;8.65;4.03;;;27.10;51.60;;;;;;5001180;28;20481;-74
2022/08/25 07:54:44;;;;;;;8.82;4.45;;;27.30;49.20;;;;;;5016198;28;20080;-73
2022/08/25 07:57:09;;;;;;;11.20;3.80;;;27.50;49.30;;;;;;5015168;28;20070;-72
2022/08/25 07:59:40;;;;;;;9.63;4.22;;;27.60;49.20;;;;;;5015654;28;20397;-73
2022/08/25 08:02:11;;;;;;;9.43;4.05;;;27.80;48.40;;;;;;5013479;28;20065;-74
2022/08/25 08:04:37;;;;;;;11.23;3.63;;;27.90;48.00;;;;;;5018103;28;20042;-73
2022/08/25 08:07:03;;;;;;;9.70;4.10;;;28.00;47.10;;;;;;5021126;28;20094;-73
2022/08/25 08:09:30;;;;;;;11.27;3.72;;;28.10;46.70;;;;;;5017280;28;20069;-73
2022/08/25 08:11:56;;;;;;;12.45;4.20;;;28.30;46.60;;;;;;5014138;28;20046;-73
2022/08/25 08:14:22;;;;;;;10.07;3.83;;;28.40;45.80;;;;;;5023584;28;20066;-73
2022/08/25 08:16:48;;;;;;;11.82;3.38;;;28.70;45.20;;;;;;5015685;28;20497;-73
2022/08/25 08:19:14;;;;;;;9.73;3.80;;;28.80;44.70;;;;;;5016450;28;20500;-72
2022/08/25 08:21:41;;;;;;;11.52;4.28;;;28.90;44.20;;;;;;5014152;28;20488;-73
2022/08/25 08:24:07;;;;;;;9.25;3.97;;;29.10;44.30;;;;;;5014092;28;20048;-72
2022/08/25 08:26:33;;;;;;;15.77;3.83;;;29.30;43.20;;;;;;5020207;28;20036;-73
2022/08/25 08:28:59;;;;;;;12.43;4.03;;;29.40;43.00;;;;;;5014840;28;20046;-72
2022/08/25 08:31:27;;;;;;;8.65;3.90;;;29.60;43.00;;;;;;5025396;28;20040;-73
2022/08/25 08:33:54;;;;;;;8.18;3.83;;;29.80;43.30;;;;;;5024716;28;20034;-73
2022/08/25 08:36:21;;;;;;;10.75;4.50;;;30.00;42.30;;;;;;5008147;28;20486;-73
2022/08/25 08:38:47;;;;;;;11.50;4.22;;;30.20;42.50;;;;;;5014723;28;20042;-73
2022/08/25 08:44:31;;;;;;;11.30;4.00;;;30.50;41.30;;;;;;5015934;28;20060;-74
2022/08/25 08:47:07;;;;;;;9.60;3.45;;;30.50;40.80;;;;;;5014602;28;20034;-73
2022/08/25 08:49:55;;;;;;;10.70;3.95;;;30.60;39.70;;;;;;5013553;28;20532;-73
2022/08/25 08:52:51;;;;;;;10.82;3.35;;;30.80;38.90;;;;;;5024808;28;20042;-74
2022/08/25 08:55:26;;;;;;;7.07;3.25;;;30.90;39.60;;;;;;5014151;28;20142;-73
2022/08/25 08:57:54;;;;;;;11.65;3.63;;;31.00;37.70;;;;;;5020078;28;20033;-73
2022/08/25 09:00:20;;;;;;;10.27;3.38;;;31.00;38.00;;;;;;5023224;28;20048;-73
2022/08/25 09:03:08;;;;;;;8.77;3.30;;;31.00;38.60;;;;;;5018455;28;20041;-74
2022/08/25 09:05:49;;;;;;;12.52;3.65;;;31.10;38.70;;;;;;4995502;28;20541;-73
2022/08/25 09:08:16;;;;;;;10.65;3.35;;;31.40;38.10;;;;;;4996516;28;20116;-73
2022/08/25 09:11:07;;;;;;;6.93;2.97;;;31.50;37.80;;;;;;4995572;28;20070;-73
2022/08/25 09:14:18;;;;;;;8.85;3.20;;;31.60;36.90;;;;;;4996156;28;20104;-71
2022/08/25 09:16:59;;;;;;;11.55;3.47;;;31.80;37.50;;;;;;4955608;28;20046;-71
2022/08/25 09:19:42;;;;;;;7.97;3.13;;;31.90;36.80;;;;;;4997266;28;20466;-71
2022/08/25 09:22:46;;;;;;;6.97;2.97;;;32.00;36.90;;;;;;4993209;28;20042;-71
2022/08/25 09:25:21;;;;;;;12.43;3.30;;;32.20;36.20;;;;;;4997854;28;20082;-72
2022/08/25 09:28:04;;;;;;;11.60;3.00;;;32.30;37.00;;;;;;4998014;28;20053;-73
2022/08/25 09:30:46;;;;;;;6.55;2.80;;;32.30;36.10;;;;;;4992028;28;20078;-72
2022/08/25 09:33:17;;;;;;;8.65;3.15;;;32.50;35.30;;;;;;4993619;28;20045;-73
2022/08/25 09:35:44;;;;;;;8.75;2.78;;;32.80;35.60;;;;;;5000803;28;20026;-73
2022/08/25 09:38:12;;;;;;;10.60;3.50;;;32.90;35.60;;;;;;4995936;28;20477;-74
2022/08/25 09:40:42;;;;;;;10.55;3.83;;;33.20;35.20;;;;;;4998722;28;20034;-73
2022/08/25 09:43:27;;;;;;;7.28;2.80;;;33.40;34.90;;;;;;4990223;28;20567;-73
2022/08/25 09:46:22;;;;;;;9.45;3.17;;;33.60;34.50;;;;;;4991319;28;20051;-73
2022/08/25 09:48:50;;;;;;;10.43;3.10;;;33.70;33.10;;;;;;4991988;28;20141;-74
2022/08/25 09:51:34;;;;;;;9.02;2.95;;;33.80;33.20;;;;;;5000245;28;20557;-73
2022/08/25 09:54:14;;;;;;;8.68;3.00;;;33.90;32.90;;;;;;4997441;28;20050;-72
2022/08/25 09:56:57;;;;;;;9.73;3.33;;;34.00;32.00;;;;;;5001346;28;20766;-73
2022/08/25 09:59:33;;;;;;;13.13;3.40;;;34.30;32.90;;;;;;4993049;28;20038;-73
2022/08/25 10:02:05;;;;;;;11.05;3.40;;;34.20;31.60;;;;;;4996720;28;20092;-73
2022/08/25 10:04:35;;;;;;;9.98;2.88;;;34.40;31.40;;;;;;4996235;28;20037;-73
2022/08/25 10:07:03;;;;;;;9.57;3.28;;;34.60;31.60;;;;;;4996761;28;20062;-73
2022/08/25 10:09:36;;;;;;;10.57;3.30;;;34.80;31.60;;;;;;4989358;28;20046;-74
2022/08/25 10:12:16;;;;;;;6.90;3.00;;;34.90;31.30;;;;;;4993964;28;20065;-74
2022/08/25 10:14:42;;;;;;;5.25;2.50;;;34.70;30.50;;;;;;4996417;28;20109;-73
2022/08/25 10:17:30;;;;;;;5.25;2.42;;;34.60;30.20;;;;;;5002375;28;20124;-74
2022/08/25 10:20:19;;;;;;;8.63;3.35;;;34.40;30.80;;;;;;5014769;28;20041;-73
2022/08/25 10:22:46;;;;;;;7.70;3.28;;;33.40;34.00;;;;;;5001831;28;20123;-75
2022/08/25 10:25:15;;;;;;;7.60;3.55;;;32.50;36.40;;;;;;4996258;28;20064;-73
2022/08/25 10:28:19;;;;;;;7.80;3.33;;;32.00;37.60;;;;;;4990383;28;20441;-73
2022/08/25 10:30:48;;;;;;;14.88;3.90;;;32.00;38.40;;;;;;4966760;28;20065;-72
2022/08/25 10:33:29;;;;;;;14.32;3.97;;;31.50;38.70;;;;;;4993714;28;20050;-72
2022/08/25 10:36:21;;;;;;;13.32;3.75;;;31.10;39.70;;;;;;4978081;28;20092;-73
2022/08/25 10:38:59;;;;;;;11.93;3.60;;;30.90;39.80;;;;;;4996457;28;20081;-73
2022/08/25 10:41:43;;;;;;;10.57;4.15;;;30.70;40.40;;;;;;4992884;28;20038;-72
2022/08/25 10:45:41;;;;;;;;;;;30.50;40.80;;;;;;4993231;28;20037;-72
2022/08/25 10:47:08;;;;;;;9.57;4.30;;;30.50;40.50;;;;;;4992065;28;19973;-74
2022/08/25 10:49:46;;;;;;;10.07;3.75;;;30.50;40.50;;;;;;5018446;28;20168;-72
2022/08/25 10:52:27;;;;;;;8.07;4.00;;;30.40;41.00;;;;;;5009786;28;20398;-72
2022/08/25 10:55:15;;;;;;;10.82;3.58;;;30.50;40.70;;;;;;5010799;28;20048;-72
2022/08/25 10:57:55;;;;;;;8.57;4.00;;;31.00;39.70;;;;;;5014098;28;20042;-75
2022/08/25 11:00:23;;;;;;;10.90;3.88;;;31.20;39.60;;;;;;5009185;28;20128;-73
2022/08/25 11:02:56;;;;;;;17.42;5.30;;;31.60;39.50;;;;;;5013934;28;20118;-72
2022/08/25 11:05:25;;;;;;;9.32;5.07;;;31.90;41.10;;;;;;5052935;28;20069;-73
2022/08/25 11:07:58;;;;;;;11.70;5.85;;;32.00;40.30;;;;;;5013359;28;20050;-73
2022/08/25 11:10:39;;;;;;;10.43;5.93;;;32.10;42.90;;;;;;5012806;28;20065;-73
2022/08/25 11:13:12;;;;;;;13.35;5.53;;;32.20;42.20;;;;;;5014511;28;20454;-73
2022/08/25 11:15:51;;;;;;;10.98;6.80;;;31.90;42.70;;;;;;5045081;28;20096;-73
2022/08/25 11:18:16;;;;;;;12.25;9.98;;;31.90;43.90;;;;;;5009005;28;20474;-73
2022/08/25 11:20:59;;;;;;;12.00;8.43;;;31.40;44.70;;;;;;5008850;28;20057;-72
2022/08/25 11:23:58;;;;;;;14.47;7.83;;;31.00;45.70;;;;;;5010150;28;20517;-74
2022/08/25 11:26:33;;;;;;;14.57;8.18;;;30.90;45.60;;;;;;4995391;28;20111;-73
2022/08/25 11:29:16;;;;;;;10.82;7.40;;;30.90;45.00;;;;;;5010821;28;20054;-73
2022/08/25 11:31:46;;;;;;;12.25;8.30;;;31.00;44.50;;;;;;5012041;28;20037;-73
2022/08/25 11:34:14;;;;;;;13.88;10.48;;;30.90;45.40;;;;;;5016262;28;20038;-73
2022/08/25 11:36:42;;;;;;;12.32;10.98;;;30.60;47.50;;;;;;5019843;28;20034;-75
2022/08/25 11:39:22;;;;;;;19.17;11.35;;;30.50;48.30;;;;;;5009190;28;20049;-73
2022/08/25 11:42:19;;;;;;;16.17;9.95;;;30.40;48.30;;;;;;5003827;28;20038;-73
2022/08/25 11:44:57;;;;;;;14.27;11.80;;;30.40;48.50;;;;;;4985755;28;20041;-73
2022/08/25 11:47:40;;;;;;;18.75;12.68;;;30.40;48.20;;;;;;5023367;28;20085;-73
2022/08/25 11:50:32;;;;;;;15.63;12.23;;;30.50;47.60;;;;;;5025447;28;20046;-73
2022/08/25 11:53:10;;;;;;;20.00;15.20;;;30.60;48.40;;;;;;5011016;28;20084;-73
2022/08/25 11:55:35;;;;;;;22.83;18.83;;;30.70;49.00;;;;;;5025422;28;20037;-73
2022/08/25 11:58:26;;;;;;;20.30;18.20;;;30.50;49.40;;;;;;5017749;28;20140;-74
2022/08/25 12:00:52;;;;;;;21.98;18.75;;;30.70;48.70;;;;;;5014009;28;20026;-73
2022/08/25 12:03:36;;;;;;;18.80;16.35;;;30.70;48.60;;;;;;5007876;28;20053;-73
2022/08/25 12:06:23;;;;;;;17.85;14.40;;;30.90;48.20;;;;;;5016557;28;20034;-75
2022/08/25 12:08:58;;;;;;;20.08;16.00;;;31.10;48.20;;;;;;5022911;28;20053;-74
2022/08/25 12:11:45;;;;;;;23.52;16.65;;;31.20;47.50;;;;;;5016640;28;20037;-73
2022/08/25 12:14:31;;;;;;;20.52;16.55;;;31.30;47.00;;;;;;5038240;28;20104;-73
2022/08/25 12:16:59;;;;;;;18.02;14.57;;;31.20;47.30;;;;;;5016199;28;20030;-72
2022/08/25 12:19:24;;;;;;;22.17;19.83;;;31.50;46.80;;;;;;5017268;28;20120;-74
2022/08/25 12:22:21;;;;;;;26.98;20.77;;;31.50;46.60;;;;;;5022982;28;20143;-73
2022/08/25 12:24:55;;;;;;;23.00;18.40;;;31.40;48.40;;;;;;4997858;28;20049;-73
2022/08/25 12:27:42;;;;;;;18.50;15.35;;;31.50;47.30;;;;;;5021871;28;20187;-73
2022/08/25 12:30:29;;;;;;;18.33;15.90;;;31.30;46.60;;;;;;5013322;28;20049;-72
2022/08/25 12:33:13;;;;;;;15.52;12.70;;;31.30;46.80;;;;;;5012259;28;20129;-73
2022/08/25 12:36:00;;;;;;;20.00;18.02;;;31.10;47.50;;;;;;5027907;28;20045;-73
2022/08/25 12:38:44;;;;;;;20.35;18.10;;;31.00;48.70;;;;;;5013013;28;20393;-72
2022/08/25 12:41:11;;;;;;;;;;;30.70;50.00;;;;;;5011739;28;20042;-73
2022/08/25 12:43:42;;;;;;;19.08;15.50;;;30.70;50.00;;;;;;5019765;28;19980;-73
2022/08/25 12:46:21;;;;;;;17.65;14.07;;;31.00;50.20;;;;;;5011188;28;20034;-73
2022/08/25 12:49:28;;;;;;;19.67;17.77;;;31.10;50.60;;;;;;5047048;28;20041;-73
2022/08/25 12:52:06;;;;;;;17.95;16.02;;;31.20;50.10;;;;;;5021975;28;20041;-73
2022/08/25 12:54:50;;;;;;;20.95;17.55;;;31.20;50.20;;;;;;5001062;28;20176;-73
2022/08/25 12:57:27;;;;;;;18.17;16.13;;;30.90;50.30;;;;;;4996360;28;20107;-73
2022/08/25 12:59:56;;;;;;;16.88;15.02;;;30.80;50.70;;;;;;4995150;28;20108;-73
2022/08/25 13:02:38;;;;;;;17.05;14.23;;;30.70;51.90;;;;;;4992113;28;20042;-72